createdAt,value
2023-03-07T00:00:23.169Z,99253.53
2023-03-07T00:02:56.086Z,99241.53
2023-03-07T00:05:25.843Z,99238.59
2023-03-07T00:07:55.529Z,99217.25
2023-03-07T00:10:25.009Z,99215.69
2023-03-07T00:12:54.507Z,99200.72
2023-03-07T00:15:23.969Z,99190.50
2023-03-07T00:17:55.934Z,99181.13
2023-03-07T00:20:25.821Z,99166.44
2023-03-07T00:22:55.266Z,99152.31
2023-03-07T00:25:24.648Z,99146.53
2023-03-07T00:27:54.026Z,99127.06
2023-03-07T00:30:23.775Z,99113.38
2023-03-07T00:32:55.792Z,99107.47
2023-03-07T00:35:25.205Z,99079.25
2023-03-07T00:37:54.585Z,99072.94
2023-03-07T00:40:24.576Z,99069.19
2023-03-07T00:42:53.959Z,99055.47
2023-03-07T00:45:23.327Z,99053.00
2023-03-07T00:47:53.138Z,99039.72
2023-03-07T00:50:25.142Z,99024.69
2023-03-07T00:52:54.577Z,99011.66
2023-03-07T00:55:24.205Z,98998.28
2023-03-07T00:57:53.646Z,98998.56
2023-03-07T01:00:23.390Z,98985.09
2023-03-07T01:02:55.366Z,98990.53
2023-03-07T01:05:28.987Z,98966.03
2023-03-07T01:07:58.436Z,98968.84
2023-03-07T01:10:29.564Z,98960.59
2023-03-07T01:12:58.965Z,98948.91
2023-03-07T01:15:28.336Z,98949.06
2023-03-07T01:17:57.820Z,98949.59
2023-03-07T01:20:29.825Z,98925.16
2023-03-07T01:22:59.251Z,98914.38
2023-03-07T01:25:28.652Z,98920.56
2023-03-07T01:27:58.573Z,98905.34
2023-03-07T01:30:28.221Z,98902.91
2023-03-07T01:32:58.722Z,98901.09
2023-03-07T01:35:30.800Z,98892.69
2023-03-07T01:38:00.247Z,98895.06
2023-03-07T01:40:29.623Z,98882.38
2023-03-07T01:43:22.440Z,98882.91
2023-03-07T01:46:23.052Z,98893.28
2023-03-07T01:48:54.998Z,98882.34
2023-03-07T01:51:27.582Z,98879.72
2023-03-07T01:53:58.646Z,98873.28
2023-03-07T01:56:28.388Z,98868.63
2023-03-07T01:58:58.392Z,98866.22
2023-03-07T02:01:28.942Z,98865.50
2023-03-07T02:04:01.360Z,98856.88
2023-03-07T02:06:35.284Z,98852.59
2023-03-07T02:09:05.070Z,98845.44
2023-03-07T02:11:34.829Z,98849.78
2023-03-07T02:14:04.249Z,98847.09
2023-03-07T02:16:34.001Z,98837.91
2023-03-07T02:19:03.535Z,98825.88
2023-03-07T02:21:41.526Z,98827.63
2023-03-07T02:24:17.384Z,98814.84
2023-03-07T02:26:50.580Z,98819.03
2023-03-07T02:29:20.343Z,98802.41
2023-03-07T02:31:49.923Z,98807.25
2023-03-07T02:34:24.883Z,98807.16
2023-03-07T02:36:56.547Z,98798.69
2023-03-07T02:39:30.136Z,98799.50
2023-03-07T02:42:04.972Z,98794.75
2023-03-07T02:44:34.653Z,98798.25
2023-03-07T02:47:05.503Z,98785.47
2023-03-07T02:49:34.964Z,98794.75
2023-03-07T02:52:04.338Z,98787.22
2023-03-07T02:54:34.015Z,98776.22
2023-03-07T02:57:05.981Z,98776.47
2023-03-07T02:59:35.588Z,98773.94
2023-03-07T03:02:05.549Z,98765.75
2023-03-07T03:04:35.407Z,98765.84
2023-03-07T03:07:05.033Z,98767.59
2023-03-07T03:09:34.505Z,98765.28
2023-03-07T03:12:06.867Z,98772.97
2023-03-07T03:14:36.332Z,98757.25
2023-03-07T03:17:06.205Z,98757.28
2023-03-07T03:19:35.606Z,98753.25
2023-03-07T03:22:05.188Z,98734.16
2023-03-07T03:24:34.676Z,98727.69
2023-03-07T03:27:07.070Z,98733.91
2023-03-07T03:29:36.538Z,98723.84
2023-03-07T03:32:06.770Z,98725.91
2023-03-07T03:34:36.225Z,98721.13
2023-03-07T03:37:07.832Z,98701.81
2023-03-07T03:39:37.661Z,98704.47
2023-03-07T03:42:10.237Z,98711.28
2023-03-07T03:44:39.633Z,98706.31
2023-03-07T03:47:09.198Z,98718.28
2023-03-07T03:49:38.608Z,98712.31
2023-03-07T03:52:08.319Z,98709.22
2023-03-07T03:54:37.863Z,98706.81
2023-03-07T03:57:10.781Z,98718.56
2023-03-07T03:59:40.193Z,98704.38
2023-03-07T04:02:09.751Z,98703.66
2023-03-07T04:04:39.168Z,98706.50
2023-03-07T04:07:11.219Z,98709.13
2023-03-07T04:09:40.637Z,98711.66
2023-03-07T04:12:12.770Z,98709.47
2023-03-07T04:14:42.139Z,98698.50
2023-03-07T04:17:11.500Z,98702.81
2023-03-07T04:19:41.046Z,98703.66
2023-03-07T04:22:11.419Z,98698.78
2023-03-07T04:24:40.858Z,98703.97
2023-03-07T04:27:12.818Z,98702.31
2023-03-07T04:29:42.216Z,98693.09
2023-03-07T04:32:11.760Z,98694.19
2023-03-07T04:34:41.467Z,98678.13
2023-03-07T04:37:10.951Z,98686.69
2023-03-07T04:39:40.329Z,98680.13
2023-03-07T04:42:12.323Z,98674.94
2023-03-07T04:44:41.707Z,98689.91
2023-03-07T04:47:11.126Z,98682.56
2023-03-07T04:49:40.539Z,98694.47
2023-03-07T04:52:10.377Z,98684.22
2023-03-07T04:54:40.910Z,98686.13
2023-03-07T04:57:13.195Z,98687.13
2023-03-07T04:59:42.645Z,98690.69
2023-03-07T05:02:14.937Z,98700.78
2023-03-07T05:04:44.381Z,98711.00
2023-03-07T05:07:13.784Z,98712.31
2023-03-07T05:09:43.185Z,98719.28
2023-03-07T05:12:15.782Z,98718.59
2023-03-07T05:14:45.154Z,98720.22
2023-03-07T05:17:14.596Z,98728.78
2023-03-07T05:19:44.300Z,98740.69
2023-03-07T05:22:13.717Z,98744.75
2023-03-07T05:24:43.090Z,98741.25
2023-03-07T05:27:16.515Z,98748.97
2023-03-07T05:29:45.982Z,98761.66
2023-03-07T05:32:15.560Z,98747.22
2023-03-07T05:34:46.974Z,98761.50
2023-03-07T05:37:16.447Z,98764.00
2023-03-07T05:39:45.871Z,98762.31
2023-03-07T05:42:18.027Z,98760.94
2023-03-07T05:44:47.459Z,98753.25
2023-03-07T05:47:16.947Z,98754.69
2023-03-07T05:49:46.406Z,98779.44
2023-03-07T05:52:15.770Z,98769.41
2023-03-07T05:54:45.152Z,98766.84
2023-03-07T05:57:17.239Z,98759.94
2023-03-07T05:59:46.635Z,98755.78
2023-03-07T06:02:16.184Z,98767.69
2023-03-07T06:04:46.931Z,98755.94
2023-03-07T06:07:16.417Z,98765.50
2023-03-07T06:09:45.873Z,98767.13
2023-03-07T06:12:17.847Z,98785.75
2023-03-07T06:14:47.280Z,98758.81
2023-03-07T06:17:16.755Z,98757.09
2023-03-07T06:19:46.123Z,98755.47
2023-03-07T06:22:15.498Z,98762.38
2023-03-07T06:24:44.899Z,98769.16
2023-03-07T06:27:16.882Z,98770.00
2023-03-07T06:29:46.559Z,98770.97
2023-03-07T06:32:18.561Z,98769.22
2023-03-07T06:34:48.033Z,98787.16
2023-03-07T06:37:17.657Z,98798.19
2023-03-07T06:39:47.348Z,98789.75
2023-03-07T06:42:19.408Z,98781.19
2023-03-07T06:44:48.969Z,98776.84
2023-03-07T06:47:18.421Z,98790.56
2023-03-07T06:49:47.828Z,98797.19
2023-03-07T06:52:17.251Z,98790.50
2023-03-07T06:54:46.661Z,98802.31
2023-03-07T06:57:16.123Z,98809.09
2023-03-07T06:59:48.090Z,98805.00
2023-03-07T07:02:17.995Z,98786.41
2023-03-07T07:04:47.431Z,98794.03
2023-03-07T07:07:16.797Z,98806.59
2023-03-07T07:09:46.217Z,98797.81
2023-03-07T07:12:15.593Z,98785.97
2023-03-07T07:14:44.961Z,98806.25
2023-03-07T07:17:18.017Z,98785.13
2023-03-07T07:19:47.373Z,98783.38
2023-03-07T07:22:18.384Z,98770.81
2023-03-07T07:24:47.778Z,98770.53
2023-03-07T07:27:17.487Z,98780.69
2023-03-07T07:29:46.910Z,98776.84
2023-03-07T07:32:19.133Z,98785.47
2023-03-07T07:34:48.570Z,98784.81
2023-03-07T07:37:18.046Z,98775.59
2023-03-07T07:39:47.421Z,98792.09
2023-03-07T07:42:17.129Z,98780.16
2023-03-07T07:44:47.114Z,98757.75
2023-03-07T07:47:19.152Z,98768.03
2023-03-07T07:49:48.560Z,98780.00
2023-03-07T07:52:18.173Z,98776.94
2023-03-07T07:54:47.543Z,98762.78
2023-03-07T07:57:16.910Z,98777.31
2023-03-07T07:59:46.338Z,98770.78
2023-03-07T08:02:16.274Z,98790.47
2023-03-07T08:04:48.858Z,98778.25
2023-03-07T08:07:18.289Z,98797.00
2023-03-07T08:09:47.698Z,98799.59
2023-03-07T08:12:17.318Z,98810.66
2023-03-07T08:14:47.243Z,98814.81
2023-03-07T08:17:19.492Z,98809.78
2023-03-07T08:19:51.431Z,98809.06
2023-03-07T08:22:20.904Z,98819.41
2023-03-07T08:24:51.445Z,98813.56
2023-03-07T08:27:21.094Z,98811.09
2023-03-07T08:29:51.676Z,98811.59
2023-03-07T08:32:21.158Z,98829.47
2023-03-07T08:34:53.326Z,98823.59
2023-03-07T08:37:22.769Z,98828.31
2023-03-07T08:39:52.191Z,98823.97
2023-03-07T08:42:21.643Z,98827.00
2023-03-07T08:44:51.014Z,98840.63
2023-03-07T08:47:20.435Z,98824.56
2023-03-07T08:49:49.865Z,98834.03
2023-03-07T08:52:21.922Z,98835.75
2023-03-07T08:54:51.352Z,98836.94
2023-03-07T08:57:20.723Z,98825.94
2023-03-07T08:59:50.104Z,98831.38
2023-03-07T09:02:19.561Z,98847.75
2023-03-07T09:04:49.707Z,98829.47
2023-03-07T09:07:22.216Z,98837.69
2023-03-07T09:09:51.586Z,98847.34
2023-03-07T09:12:21.047Z,98853.97
2023-03-07T09:14:50.581Z,98849.47
2023-03-07T09:17:19.986Z,98846.19
2023-03-07T09:19:50.663Z,98858.88
2023-03-07T09:22:22.668Z,98862.44
2023-03-07T09:24:52.069Z,98883.81
2023-03-07T09:27:21.584Z,98881.81
2023-03-07T09:29:50.972Z,98862.38
2023-03-07T09:32:20.500Z,98842.88
2023-03-07T09:34:50.452Z,98842.75
2023-03-07T09:37:22.532Z,98839.88
2023-03-07T09:39:52.406Z,98843.38
2023-03-07T09:42:24.814Z,98846.00
2023-03-07T09:45:12.683Z,98851.44
2023-03-07T09:48:00.144Z,98838.75
2023-03-07T09:50:35.677Z,98838.28
2023-03-07T09:53:08.561Z,98835.38
2023-03-07T09:55:38.221Z,98821.44
2023-03-07T09:58:10.855Z,98817.22
2023-03-07T10:00:46.001Z,98817.00
2023-03-07T10:03:22.132Z,98811.38
2023-03-07T10:05:53.168Z,98811.75
2023-03-07T10:08:30.629Z,98803.75
2023-03-07T10:11:07.738Z,98804.19
2023-03-07T10:13:46.142Z,98804.50
2023-03-07T10:16:21.831Z,98798.13
2023-03-07T10:19:00.310Z,98803.44
2023-03-07T10:21:38.254Z,98811.13
2023-03-07T10:24:19.118Z,98849.22
2023-03-07T10:26:52.669Z,98870.03
2023-03-07T10:29:25.355Z,98881.38
2023-03-07T10:31:58.253Z,98860.22
2023-03-07T10:34:32.298Z,98858.44
2023-03-07T10:37:09.066Z,98840.94
2023-03-07T10:39:44.373Z,98852.16
2023-03-07T10:42:15.103Z,98838.09
2023-03-07T10:44:46.225Z,98832.47
2023-03-07T10:47:22.398Z,98826.50
2023-03-07T10:49:53.635Z,98820.97
2023-03-07T10:52:32.588Z,98821.25
2023-03-07T10:55:35.851Z,98825.59
2023-03-07T10:58:22.306Z,98820.13
2023-03-07T11:01:05.980Z,98832.44
2023-03-07T11:03:52.076Z,98825.91
2023-03-07T11:06:35.942Z,98851.19
2023-03-07T11:09:23.553Z,98876.13
2023-03-07T11:11:58.996Z,98899.28
2023-03-07T11:14:29.269Z,98929.00
2023-03-07T11:17:00.460Z,98965.13
2023-03-07T11:19:42.622Z,98967.56
2023-03-07T11:22:27.935Z,99013.91
2023-03-07T11:25:00.217Z,99028.31
2023-03-07T11:27:39.054Z,99041.03
2023-03-07T11:30:20.673Z,99069.53
2023-03-07T11:32:58.615Z,99096.31
2023-03-07T11:35:37.488Z,99085.44
2023-03-07T11:38:10.718Z,99093.91
2023-03-07T11:40:44.825Z,99102.09
2023-03-07T11:43:23.291Z,99107.63
2023-03-07T11:45:56.463Z,99106.25
2023-03-07T11:48:36.643Z,99106.06
2023-03-07T11:51:06.525Z,99112.81
2023-03-07T11:53:45.372Z,99102.34
2023-03-07T11:56:28.183Z,99092.72
2023-03-07T11:59:35.374Z,99092.50
2023-03-07T12:02:05.496Z,99100.78
2023-03-07T12:04:56.911Z,99093.59
2023-03-07T12:07:47.335Z,99065.97
2023-03-07T12:10:28.897Z,99063.75
2023-03-07T12:13:05.907Z,99058.94
2023-03-07T12:15:40.749Z,99051.34
2023-03-07T12:18:30.006Z,99049.88
2023-03-07T12:21:09.482Z,99032.59
2023-03-07T12:23:42.719Z,99023.97
2023-03-07T12:26:16.108Z,99012.75
2023-03-07T12:28:47.106Z,98995.03
2023-03-07T12:31:25.099Z,98972.63
2023-03-07T12:34:02.287Z,98972.34
2023-03-07T12:36:36.974Z,98962.09
2023-03-07T12:39:12.643Z,98973.91
2023-03-07T12:41:54.482Z,99007.81
2023-03-07T12:44:32.664Z,99057.75
2023-03-07T12:47:11.167Z,99011.94
2023-03-07T12:49:50.080Z,98979.88
2023-03-07T12:52:28.104Z,98973.03
2023-03-07T12:55:02.048Z,98991.38
2023-03-07T12:57:33.842Z,98982.16
2023-03-07T13:00:07.233Z,98973.06
2023-03-07T13:02:42.539Z,98950.56
2023-03-07T13:05:21.312Z,98949.81
2023-03-07T13:07:51.936Z,98944.00
2023-03-07T13:10:23.570Z,98950.91
2023-03-07T13:12:54.549Z,98912.66
2023-03-07T13:15:48.537Z,98865.97
2023-03-07T13:18:32.188Z,98870.91
2023-03-07T13:21:29.460Z,98876.81
2023-03-07T13:24:28.766Z,98908.38
2023-03-07T13:26:58.756Z,98915.25
2023-03-07T13:29:58.024Z,98907.69
2023-03-07T13:32:57.510Z,98882.44
2023-03-07T13:36:00.076Z,98842.47
2023-03-07T13:38:37.291Z,98836.50
2023-03-07T13:41:07.673Z,98812.59
2023-03-07T13:44:01.518Z,98787.84
2023-03-07T13:46:54.295Z,98732.97
2023-03-07T13:49:47.293Z,98709.41
2023-03-07T13:52:44.287Z,98746.41
2023-03-07T13:55:33.854Z,98779.53
2023-03-07T13:58:09.478Z,98787.31
2023-03-07T14:00:41.231Z,98778.91
2023-03-07T14:03:27.747Z,98807.09
2023-03-07T14:05:59.499Z,98804.47
2023-03-07T14:08:34.031Z,98806.88
2023-03-07T14:11:03.466Z,98824.59
2023-03-07T14:13:59.937Z,98804.72
2023-03-07T14:16:40.244Z,98803.19
2023-03-07T14:19:17.852Z,98807.06
2023-03-07T14:21:56.799Z,98809.91
2023-03-07T14:25:02.059Z,98800.78
2023-03-07T14:27:31.533Z,98808.56
2023-03-07T14:30:00.885Z,98800.00
2023-03-07T14:32:32.092Z,98808.50
2023-03-07T14:35:01.931Z,98799.56
2023-03-07T14:37:32.731Z,98798.28
2023-03-07T14:40:14.911Z,98805.19
2023-03-07T14:42:48.952Z,98811.09
2023-03-07T14:45:26.761Z,98817.13
2023-03-07T14:48:15.003Z,98821.97
2023-03-07T14:50:45.496Z,98817.81
2023-03-07T14:53:19.554Z,98654.59
2023-03-07T14:55:53.963Z,98672.00
2023-03-07T14:58:25.276Z,98794.84
2023-03-07T15:01:02.064Z,98891.19
2023-03-07T15:03:32.523Z,98868.25
2023-03-07T15:06:03.233Z,98807.41
2023-03-07T15:08:35.196Z,98749.50
2023-03-07T15:11:11.232Z,98710.47
2023-03-07T15:13:46.388Z,98637.28
2023-03-07T15:16:19.698Z,98622.38
2023-03-07T15:18:52.633Z,98633.31
2023-03-07T15:21:23.795Z,98683.88
2023-03-07T15:23:55.152Z,98791.44
2023-03-07T15:26:29.435Z,98921.81
2023-03-07T15:29:02.950Z,99051.09
2023-03-07T15:31:33.674Z,99123.31
2023-03-07T15:34:14.588Z,99194.75
2023-03-07T15:36:44.042Z,99198.75
2023-03-07T15:39:28.431Z,99196.84
2023-03-07T15:42:10.978Z,99192.06
2023-03-07T15:44:40.410Z,99169.81
2023-03-07T15:47:17.993Z,99156.94
2023-03-07T15:49:49.624Z,99142.31
2023-03-07T15:52:24.734Z,99122.47
2023-03-07T15:54:55.880Z,99105.78
2023-03-07T15:57:30.184Z,99099.66
2023-03-07T16:00:02.094Z,99107.28
2023-03-07T16:02:43.914Z,99106.09
2023-03-07T16:05:33.035Z,99136.00
2023-03-07T16:08:02.683Z,99190.72
2023-03-07T16:10:33.668Z,99267.88
2023-03-07T16:13:06.247Z,99331.25
2023-03-07T16:15:35.925Z,99373.44
2023-03-07T16:18:08.002Z,99408.16
2023-03-07T16:20:37.460Z,99421.66
2023-03-07T16:23:09.700Z,99421.28
2023-03-07T16:25:39.212Z,99434.84
2023-03-07T16:28:14.134Z,99429.50
2023-03-07T16:30:45.829Z,99437.03
2023-03-07T16:33:16.744Z,99432.25
2023-03-07T16:35:46.402Z,99433.63
2023-03-07T16:38:16.236Z,99439.75
2023-03-07T16:40:47.287Z,99443.78
2023-03-07T16:43:35.571Z,99445.66
2023-03-07T16:46:06.126Z,99439.72
2023-03-07T16:48:36.265Z,99442.34
2023-03-07T16:51:06.313Z,99440.63
2023-03-07T16:53:35.708Z,99451.91
2023-03-07T16:56:05.184Z,99457.19
2023-03-07T16:58:38.291Z,99468.13
2023-03-07T17:01:08.429Z,99485.91
2023-03-07T17:03:37.844Z,99518.94
2023-03-07T17:06:07.449Z,99534.03
2023-03-07T17:08:36.931Z,99529.69
2023-03-07T17:11:06.493Z,99403.72
2023-03-07T17:13:38.465Z,99372.72
2023-03-07T17:16:08.289Z,99374.88
2023-03-07T17:18:37.814Z,99363.78
2023-03-07T17:21:07.515Z,99351.78
2023-03-07T17:23:36.906Z,99343.28
2023-03-07T17:26:06.757Z,99334.50
2023-03-07T17:28:39.372Z,99334.41
2023-03-07T17:31:09.079Z,99327.91
2023-03-07T17:33:38.616Z,99332.59
2023-03-07T17:36:08.738Z,99329.84
2023-03-07T17:38:38.514Z,99320.28
2023-03-07T17:41:08.275Z,99318.44
2023-03-07T17:43:40.240Z,99318.13
2023-03-07T17:46:10.844Z,99318.13
2023-03-07T17:48:40.280Z,99321.25
2023-03-07T17:51:11.398Z,99324.75
2023-03-07T17:53:41.414Z,99312.88
2023-03-07T17:56:11.395Z,99314.41
2023-03-07T17:58:43.532Z,99320.25
2023-03-07T18:01:15.246Z,99332.72
2023-03-07T18:03:45.240Z,99329.19
2023-03-07T18:06:14.647Z,99327.84
2023-03-07T18:08:44.062Z,99334.88
2023-03-07T18:11:15.330Z,99341.97
2023-03-07T18:13:47.392Z,99345.28
2023-03-07T18:16:17.104Z,99352.09
2023-03-07T18:18:58.202Z,99349.84
2023-03-07T18:21:29.927Z,99359.41
2023-03-07T18:24:00.239Z,99372.75
2023-03-07T18:26:30.348Z,99377.13
2023-03-07T18:29:02.347Z,99395.06
2023-03-07T18:31:31.813Z,99394.28
2023-03-07T18:34:02.942Z,99398.84
2023-03-07T18:36:32.344Z,99405.53
2023-03-07T18:39:01.793Z,99412.06
2023-03-07T18:41:31.723Z,99418.19
2023-03-07T18:44:03.790Z,99412.38
2023-03-07T18:46:33.596Z,99424.72
2023-03-07T18:49:04.133Z,99427.34
2023-03-07T18:51:33.819Z,99423.84
2023-03-07T18:54:04.523Z,99425.19
2023-03-07T18:56:33.978Z,99424.78
2023-03-07T18:59:06.479Z,99418.94
2023-03-07T19:01:37.625Z,99420.63
2023-03-07T19:04:08.246Z,99419.72
2023-03-07T19:06:38.827Z,99416.28
2023-03-07T19:09:09.703Z,99417.38
2023-03-07T19:11:39.343Z,99406.94
2023-03-07T19:14:11.456Z,99409.72
2023-03-07T19:16:41.171Z,99401.03
2023-03-07T19:19:10.578Z,99405.19
2023-03-07T19:21:40.080Z,99394.66
2023-03-07T19:24:12.025Z,99399.72
2023-03-07T19:26:44.237Z,99403.50
2023-03-07T19:29:17.135Z,99399.84
2023-03-07T19:31:46.637Z,99396.66
2023-03-07T19:34:16.206Z,99383.81
2023-03-07T19:36:45.699Z,99387.91
2023-03-07T19:39:20.548Z,99381.84
2023-03-07T19:41:50.641Z,99384.72
2023-03-07T19:44:22.718Z,99389.00
2023-03-07T19:46:52.816Z,99381.00
2023-03-07T19:49:23.271Z,99374.75
2023-03-07T19:51:52.656Z,99372.13
2023-03-07T19:54:23.198Z,99376.97
2023-03-07T19:56:53.171Z,99380.41
2023-03-07T19:59:25.236Z,99367.75
2023-03-07T20:01:54.742Z,99369.28
2023-03-07T20:04:24.173Z,99372.69
2023-03-07T20:06:53.587Z,99368.41
2023-03-07T20:09:23.394Z,99360.50
2023-03-07T20:11:52.839Z,99368.09
2023-03-07T20:14:24.863Z,99362.81
2023-03-07T20:16:54.277Z,99363.78
2023-03-07T20:19:23.695Z,99364.50
2023-03-07T20:21:53.133Z,99362.94
2023-03-07T20:24:22.513Z,99374.78
2023-03-07T20:26:51.952Z,99376.25
2023-03-07T20:29:21.363Z,99376.13
2023-03-07T20:31:53.569Z,99386.13
2023-03-07T20:34:25.299Z,99381.84
2023-03-07T20:36:54.928Z,99386.91
2023-03-07T20:39:24.692Z,99390.88
2023-03-07T20:41:54.139Z,99399.66
2023-03-07T20:44:23.572Z,99405.38
2023-03-07T20:46:55.789Z,99407.13
2023-03-07T20:49:25.182Z,99413.75
2023-03-07T20:51:54.685Z,99414.41
2023-03-07T20:54:26.289Z,99422.97
2023-03-07T20:56:55.710Z,99426.50
2023-03-07T20:59:25.182Z,99431.88
2023-03-07T21:01:57.176Z,99434.41
2023-03-07T21:04:26.680Z,99443.97
2023-03-07T21:06:56.117Z,99453.72
2023-03-07T21:09:25.517Z,99465.41
2023-03-07T21:11:55.001Z,99465.88
2023-03-07T21:14:26.243Z,99467.81
2023-03-07T21:16:58.242Z,99477.94
2023-03-07T21:19:27.663Z,99484.09
2023-03-07T21:21:59.040Z,99479.38
2023-03-07T21:24:28.475Z,99481.91
2023-03-07T21:26:58.403Z,99481.59
2023-03-07T21:29:27.835Z,99481.47
2023-03-07T21:31:59.921Z,99484.78
2023-03-07T21:34:29.343Z,99487.28
2023-03-07T21:36:58.961Z,99490.25
2023-03-07T21:39:32.136Z,99487.63
2023-03-07T21:42:01.529Z,99496.72
2023-03-07T21:44:30.960Z,99495.94
2023-03-07T21:47:02.929Z,99500.03
2023-03-07T21:49:34.048Z,99502.44
2023-03-07T21:52:03.473Z,99511.78
2023-03-07T21:54:32.937Z,99515.19
2023-03-07T21:57:04.011Z,99514.22
2023-03-07T21:59:33.524Z,99514.97
2023-03-07T22:02:05.533Z,99515.84
2023-03-07T22:04:34.986Z,99514.22
2023-03-07T22:07:06.927Z,99519.34
2023-03-07T22:09:36.578Z,99523.09
2023-03-07T22:12:06.150Z,99514.97
2023-03-07T22:14:35.633Z,99521.13
2023-03-07T22:17:07.621Z,99522.56
2023-03-07T22:19:36.990Z,99522.78
2023-03-07T22:22:06.526Z,99518.50
2023-03-07T22:24:36.284Z,99518.16
2023-03-07T22:27:07.128Z,99524.75
2023-03-07T22:29:37.747Z,99519.91
2023-03-07T22:32:10.091Z,99520.56
2023-03-07T22:34:40.594Z,99527.50
2023-03-07T22:37:09.997Z,99521.66
2023-03-07T22:39:39.480Z,99531.03
2023-03-07T22:42:09.457Z,99530.69
2023-03-07T22:44:39.103Z,99534.09
2023-03-07T22:47:11.326Z,99535.75
2023-03-07T22:49:40.746Z,99536.75
2023-03-07T22:52:10.825Z,99539.16
2023-03-07T22:54:41.232Z,99530.81
2023-03-07T22:57:10.679Z,99529.59
2023-03-07T22:59:40.315Z,99532.88
2023-03-07T23:02:12.455Z,99532.00
2023-03-07T23:04:41.858Z,99535.84
2023-03-07T23:07:11.344Z,99530.34
2023-03-07T23:09:40.729Z,99533.66
2023-03-07T23:12:10.879Z,99533.78
2023-03-07T23:14:40.899Z,99532.09
2023-03-07T23:17:13.000Z,99535.94
2023-03-07T23:19:42.574Z,99534.44
2023-03-07T23:22:12.194Z,99529.00
2023-03-07T23:24:42.146Z,99524.72
2023-03-07T23:27:13.704Z,99520.56
2023-03-07T23:29:43.157Z,99512.66
2023-03-07T23:32:15.135Z,99508.47
2023-03-07T23:34:44.558Z,99504.44
2023-03-07T23:37:13.931Z,99508.72
2023-03-07T23:39:43.389Z,99502.75
2023-03-07T23:42:14.325Z,99501.00
2023-03-07T23:44:44.295Z,99501.91
2023-03-07T23:47:16.272Z,99494.66
2023-03-07T23:49:45.647Z,99491.22
2023-03-07T23:52:15.067Z,99494.75
2023-03-07T23:54:47.454Z,99494.75
2023-03-07T23:57:16.823Z,99494.00
2023-03-07T23:59:46.209Z,99498.16
